Lockport, Louisiana
Current Conditions -  °F | °C
As of 12:15 AM on Thursday 29 Jan 2015 (Local Time) from KHUM Reporting Station
Haze Haze  
Wind Chill: 44°   Ceiling: Unl
Heat Index: 44°   Visibility: 3mi
Dew Point: 44°   Wind: 3mph
Humidity: 99%   Direction: 60°ENE
Pressure: 30.22"   Gusts: NA
Location:  29.65°N, 90.54°W
Report Text: KHUM 290615Z AUTO 06003KT 3SM BR CLR 07/07 A3022 RMK AO2 T00680067
Loading
Personal Weather Stations






























Interactive Weather Map New forecast layout! Learn more

10-Day Weather Forecast

Advertisements
Track Severe Weather on mobile